sensor_id;sensor_type;location;lat;lon;timestamp;P1;durP1;ratioP1;P2;durP2;ratioP2
17496;SDS011;62150;43.582;1.456;2024-02-21T04:38:57;10.63;;;4.60;;
17496;SDS011;62150;43.582;1.456;2024-02-21T04:41:24;10.50;;;5.00;;
17496;SDS011;62150;43.582;1.456;2024-02-21T04:43:52;11.00;;;4.97;;
17496;SDS011;62150;43.582;1.456;2024-02-21T04:46:19;11.10;;;5.13;;
17496;SDS011;62150;43.582;1.456;2024-02-21T04:48:47;11.23;;;5.27;;
17496;SDS011;62150;43.582;1.456;2024-02-21T04:51:14;10.70;;;4.90;;
17496;SDS011;62150;43.582;1.456;2024-02-21T04:53:42;9.93;;;4.93;;
17496;SDS011;62150;43.582;1.456;2024-02-21T04:56:11;10.40;;;5.03;;
17496;SDS011;62150;43.582;1.456;2024-02-21T04:58:38;10.27;;;5.07;;
17496;SDS011;62150;43.582;1.456;2024-02-21T05:01:06;10.87;;;5.20;;
17496;SDS011;62150;43.582;1.456;2024-02-21T05:03:34;9.97;;;4.67;;
17496;SDS011;62150;43.582;1.456;2024-02-21T05:06:01;10.27;;;4.60;;
17496;SDS011;62150;43.582;1.456;2024-02-21T05:08:29;11.37;;;5.17;;
17496;SDS011;62150;43.582;1.456;2024-02-21T05:10:57;10.63;;;5.13;;
17496;SDS011;62150;43.582;1.456;2024-02-21T05:13:25;11.67;;;5.30;;
17496;SDS011;62150;43.582;1.456;2024-02-21T05:15:53;12.17;;;5.23;;
17496;SDS011;62150;43.582;1.456;2024-02-21T05:18:20;11.83;;;5.50;;
17496;SDS011;62150;43.582;1.456;2024-02-21T05:20:48;11.80;;;5.73;;
17496;SDS011;62150;43.582;1.456;2024-02-21T05:23:15;12.73;;;6.07;;
17496;SDS011;62150;43.582;1.456;2024-02-21T05:25:43;12.23;;;5.70;;
17496;SDS011;62150;43.582;1.456;2024-02-21T05:28:10;12.27;;;6.27;;
17496;SDS011;62150;43.582;1.456;2024-02-21T05:30:39;13.23;;;6.43;;
17496;SDS011;62150;43.582;1.456;2024-02-21T05:33:08;12.53;;;6.63;;
17496;SDS011;62150;43.582;1.456;2024-02-21T05:35:36;13.47;;;6.77;;
17496;SDS011;62150;43.582;1.456;2024-02-21T05:38:04;13.00;;;6.50;;
17496;SDS011;62150;43.582;1.456;2024-02-21T05:40:36;13.40;;;6.13;;
17496;SDS011;62150;43.582;1.456;2024-02-21T05:43:04;12.23;;;6.77;;
17496;SDS011;62150;43.582;1.456;2024-02-21T05:45:31;12.50;;;6.67;;
17496;SDS011;62150;43.582;1.456;2024-02-21T05:48:00;12.50;;;6.30;;
17496;SDS011;62150;43.582;1.456;2024-02-21T05:50:28;13.83;;;6.50;;
17496;SDS011;62150;43.582;1.456;2024-02-21T05:52:57;13.50;;;6.17;;
17496;SDS011;62150;43.582;1.456;2024-02-21T05:55:25;14.03;;;6.17;;
17496;SDS011;62150;43.582;1.456;2024-02-21T05:57:53;13.20;;;6.60;;
17496;SDS011;62150;43.582;1.456;2024-02-21T06:00:21;12.00;;;6.60;;
17496;SDS011;62150;43.582;1.456;2024-02-21T06:02:48;11.90;;;6.40;;
17496;SDS011;62150;43.582;1.456;2024-02-21T06:05:16;12.90;;;6.67;;
17496;SDS011;62150;43.582;1.456;2024-02-21T06:07:44;13.43;;;6.53;;
17496;SDS011;62150;43.582;1.456;2024-02-21T06:10:12;13.30;;;6.50;;
17496;SDS011;62150;43.582;1.456;2024-02-21T06:12:39;14.47;;;6.97;;
17496;SDS011;62150;43.582;1.456;2024-02-21T06:15:07;12.13;;;6.00;;
17496;SDS011;62150;43.582;1.456;2024-02-21T06:17:35;12.33;;;6.30;;
17496;SDS011;62150;43.582;1.456;2024-02-21T06:20:03;12.13;;;5.93;;
17496;SDS011;62150;43.582;1.456;2024-02-21T06:22:32;13.13;;;5.97;;
17496;SDS011;62150;43.582;1.456;2024-02-21T06:25:00;12.70;;;6.43;;
17496;SDS011;62150;43.582;1.456;2024-02-21T06:27:28;12.43;;;6.03;;
17496;SDS011;62150;43.582;1.456;2024-02-21T06:29:55;13.50;;;6.70;;
17496;SDS011;62150;43.582;1.456;2024-02-21T06:32:23;11.53;;;6.37;;
17496;SDS011;62150;43.582;1.456;2024-02-21T06:34:50;11.80;;;6.03;;
17496;SDS011;62150;43.582;1.456;2024-02-21T06:37:18;11.47;;;5.87;;
17496;SDS011;62150;43.582;1.456;2024-02-21T06:39:47;14.00;;;6.43;;
17496;SDS011;62150;43.582;1.456;2024-02-21T06:42:14;12.03;;;6.30;;
17496;SDS011;62150;43.582;1.456;2024-02-21T06:44:42;12.47;;;5.30;;
17496;SDS011;62150;43.582;1.456;2024-02-21T06:47:10;11.17;;;5.43;;
17496;SDS011;62150;43.582;1.456;2024-02-21T06:49:37;13.33;;;5.80;;
17496;SDS011;62150;43.582;1.456;2024-02-21T06:52:06;12.53;;;5.50;;
17496;SDS011;62150;43.582;1.456;2024-02-21T06:54:34;10.97;;;5.33;;
17496;SDS011;62150;43.582;1.456;2024-02-21T06:57:06;11.93;;;5.43;;
17496;SDS011;62150;43.582;1.456;2024-02-21T06:59:33;11.40;;;5.50;;
17496;SDS011;62150;43.582;1.456;2024-02-21T07:02:01;11.50;;;5.53;;
17496;SDS011;62150;43.582;1.456;2024-02-21T07:04:28;11.80;;;5.03;;
17496;SDS011;62150;43.582;1.456;2024-02-21T07:06:56;11.97;;;5.30;;
17496;SDS011;62150;43.582;1.456;2024-02-21T07:09:24;10.60;;;5.43;;
17496;SDS011;62150;43.582;1.456;2024-02-21T07:11:51;12.10;;;5.70;;
17496;SDS011;62150;43.582;1.456;2024-02-21T07:14:20;10.23;;;5.27;;
17496;SDS011;62150;43.582;1.456;2024-02-21T07:16:47;11.80;;;5.93;;
17496;SDS011;62150;43.582;1.456;2024-02-21T07:19:15;13.73;;;5.77;;
17496;SDS011;62150;43.582;1.456;2024-02-21T07:21:42;11.20;;;5.67;;
17496;SDS011;62150;43.582;1.456;2024-02-21T07:24:10;14.03;;;5.80;;
17496;SDS011;62150;43.582;1.456;2024-02-21T07:26:40;11.97;;;5.87;;
17496;SDS011;62150;43.582;1.456;2024-02-21T07:29:09;12.47;;;5.37;;
17496;SDS011;62150;43.582;1.456;2024-02-21T07:31:42;11.80;;;5.60;;
17496;SDS011;62150;43.582;1.456;2024-02-21T07:34:10;10.87;;;4.83;;
17496;SDS011;62150;43.582;1.456;2024-02-21T07:36:37;10.20;;;4.60;;
17496;SDS011;62150;43.582;1.456;2024-02-21T07:39:05;10.73;;;5.03;;
17496;SDS011;62150;43.582;1.456;2024-02-21T07:41:32;10.03;;;4.77;;
17496;SDS011;62150;43.582;1.456;2024-02-21T07:44:00;9.37;;;4.40;;
17496;SDS011;62150;43.582;1.456;2024-02-21T07:46:28;11.10;;;4.73;;
17496;SDS011;62150;43.582;1.456;2024-02-21T07:48:57;10.33;;;4.33;;
17496;SDS011;62150;43.582;1.456;2024-02-21T07:51:27;9.60;;;4.30;;
17496;SDS011;62150;43.582;1.456;2024-02-21T07:53:54;8.47;;;4.23;;
17496;SDS011;62150;43.582;1.456;2024-02-21T07:56:22;9.87;;;4.63;;
17496;SDS011;62150;43.582;1.456;2024-02-21T07:58:49;9.60;;;4.20;;
17496;SDS011;62150;43.582;1.456;2024-02-21T08:01:18;10.47;;;4.37;;
17496;SDS011;62150;43.582;1.456;2024-02-21T08:03:46;10.27;;;4.30;;
17496;SDS011;62150;43.582;1.456;2024-02-21T08:06:15;10.17;;;4.03;;
17496;SDS011;62150;43.582;1.456;2024-02-21T08:08:42;9.70;;;4.17;;
17496;SDS011;62150;43.582;1.456;2024-02-21T08:11:10;10.13;;;4.27;;
17496;SDS011;62150;43.582;1.456;2024-02-21T08:13:37;10.30;;;4.43;;
17496;SDS011;62150;43.582;1.456;2024-02-21T08:16:05;9.57;;;4.27;;
17496;SDS011;62150;43.582;1.456;2024-02-21T08:18:33;9.47;;;4.30;;
17496;SDS011;62150;43.582;1.456;2024-02-21T08:21:01;11.10;;;4.67;;
17496;SDS011;62150;43.582;1.456;2024-02-21T08:23:31;10.60;;;4.53;;
17496;SDS011;62150;43.582;1.456;2024-02-21T08:25:59;10.63;;;4.53;;
17496;SDS011;62150;43.582;1.456;2024-02-21T08:28:29;10.47;;;4.67;;
17496;SDS011;62150;43.582;1.456;2024-02-21T08:30:56;11.47;;;4.80;;
17496;SDS011;62150;43.582;1.456;2024-02-21T08:33:24;8.70;;;4.63;;
17496;SDS011;62150;43.582;1.456;2024-02-21T08:35:51;9.83;;;4.10;;
17496;SDS011;62150;43.582;1.456;2024-02-21T08:38:19;9.80;;;4.27;;
17496;SDS011;62150;43.582;1.456;2024-02-21T08:40:47;8.87;;;3.93;;
17496;SDS011;62150;43.582;1.456;2024-02-21T08:43:16;9.90;;;3.77;;
17496;SDS011;62150;43.582;1.456;2024-02-21T08:45:43;8.67;;;4.00;;
17496;SDS011;62150;43.582;1.456;2024-02-21T08:48:11;9.23;;;4.17;;
17496;SDS011;62150;43.582;1.456;2024-02-21T08:50:38;9.33;;;3.80;;
17496;SDS011;62150;43.582;1.456;2024-02-21T08:53:06;9.93;;;3.80;;
17496;SDS011;62150;43.582;1.456;2024-02-21T08:55:33;10.47;;;4.10;;
17496;SDS011;62150;43.582;1.456;2024-02-21T08:58:03;10.70;;;4.57;;
17496;SDS011;62150;43.582;1.456;2024-02-21T09:00:30;10.67;;;4.90;;
17496;SDS011;62150;43.582;1.456;2024-02-21T09:02:58;10.53;;;4.67;;
17496;SDS011;62150;43.582;1.456;2024-02-21T09:05:25;10.53;;;4.93;;
17496;SDS011;62150;43.582;1.456;2024-02-21T09:07:53;11.50;;;5.50;;
17496;SDS011;62150;43.582;1.456;2024-02-21T09:10:21;12.17;;;5.17;;
17496;SDS011;62150;43.582;1.456;2024-02-21T09:12:49;14.90;;;5.43;;
17496;SDS011;62150;43.582;1.456;2024-02-21T09:15:17;12.47;;;5.83;;
17496;SDS011;62150;43.582;1.456;2024-02-21T09:17:45;12.73;;;5.70;;
17496;SDS011;62150;43.582;1.456;2024-02-21T09:20:12;13.43;;;5.60;;
17496;SDS011;62150;43.582;1.456;2024-02-21T09:22:41;16.67;;;5.60;;
17496;SDS011;62150;43.582;1.456;2024-02-21T09:25:09;12.93;;;5.93;;
17496;SDS011;62150;43.582;1.456;2024-02-21T09:27:37;12.70;;;5.37;;
17496;SDS011;62150;43.582;1.456;2024-02-21T09:30:05;12.60;;;5.23;;
17496;SDS011;62150;43.582;1.456;2024-02-21T09:32:35;12.83;;;5.43;;
17496;SDS011;62150;43.582;1.456;2024-02-21T09:35:02;12.77;;;5.47;;
17496;SDS011;62150;43.582;1.456;2024-02-21T09:37:31;13.47;;;5.20;;
17496;SDS011;62150;43.582;1.456;2024-02-21T09:39:59;14.10;;;5.90;;
17496;SDS011;62150;43.582;1.456;2024-02-21T09:42:28;11.50;;;4.77;;
17496;SDS011;62150;43.582;1.456;2024-02-21T09:45:02;11.70;;;4.90;;
17496;SDS011;62150;43.582;1.456;2024-02-21T09:47:37;11.17;;;4.97;;
17496;SDS011;62150;43.582;1.456;2024-02-21T09:50:11;11.13;;;4.93;;
17496;SDS011;62150;43.582;1.456;2024-02-21T09:52:41;11.43;;;4.77;;
17496;SDS011;62150;43.582;1.456;2024-02-21T09:55:10;11.70;;;4.37;;
17496;SDS011;62150;43.582;1.456;2024-02-21T09:57:39;11.13;;;4.30;;
17496;SDS011;62150;43.582;1.456;2024-02-21T10:00:07;10.67;;;4.10;;
17496;SDS011;62150;43.582;1.456;2024-02-21T10:02:37;9.83;;;4.00;;
17496;SDS011;62150;43.582;1.456;2024-02-21T10:05:06;9.00;;;4.03;;
17496;SDS011;62150;43.582;1.456;2024-02-21T10:07:34;10.27;;;3.60;;
17496;SDS011;62150;43.582;1.456;2024-02-21T10:10:03;9.53;;;3.57;;
17496;SDS011;62150;43.582;1.456;2024-02-21T10:12:31;9.50;;;3.40;;
17496;SDS011;62150;43.582;1.456;2024-02-21T10:15:02;8.57;;;3.50;;
17496;SDS011;62150;43.582;1.456;2024-02-21T10:17:30;8.70;;;2.97;;
17496;SDS011;62150;43.582;1.456;2024-02-21T10:20:07;8.50;;;3.13;;
17496;SDS011;62150;43.582;1.456;2024-02-21T10:22:35;9.60;;;3.10;;
17496;SDS011;62150;43.582;1.456;2024-02-21T10:25:08;7.37;;;2.80;;
17496;SDS011;62150;43.582;1.456;2024-02-21T10:27:36;7.50;;;2.80;;
17496;SDS011;62150;43.582;1.456;2024-02-21T10:30:05;7.40;;;2.90;;
17496;SDS011;62150;43.582;1.456;2024-02-21T10:32:34;5.87;;;2.50;;
17496;SDS011;62150;43.582;1.456;2024-02-21T10:35:02;8.20;;;2.97;;
17496;SDS011;62150;43.582;1.456;2024-02-21T10:37:32;6.87;;;2.50;;
17496;SDS011;62150;43.582;1.456;2024-02-21T10:40:00;5.67;;;2.43;;
17496;SDS011;62150;43.582;1.456;2024-02-21T10:42:29;5.10;;;2.30;;
17496;SDS011;62150;43.582;1.456;2024-02-21T10:45:02;5.80;;;2.27;;
17496;SDS011;62150;43.582;1.456;2024-02-21T10:47:33;4.57;;;2.10;;
17496;SDS011;62150;43.582;1.456;2024-02-21T10:50:05;4.70;;;2.07;;
17496;SDS011;62150;43.582;1.456;2024-02-21T10:52:43;5.77;;;2.20;;
17496;SDS011;62150;43.582;1.456;2024-02-21T10:55:16;4.93;;;2.13;;
17496;SDS011;62150;43.582;1.456;2024-02-21T10:57:48;5.03;;;2.10;;
17496;SDS011;62150;43.582;1.456;2024-02-21T11:00:18;8.27;;;3.53;;
17496;SDS011;62150;43.582;1.456;2024-02-21T11:02:46;5.40;;;2.50;;
17496;SDS011;62150;43.582;1.456;2024-02-21T11:05:14;6.07;;;2.67;;
17496;SDS011;62150;43.582;1.456;2024-02-21T11:07:44;6.30;;;2.70;;
17496;SDS011;62150;43.582;1.456;2024-02-21T11:10:20;5.50;;;2.40;;
17496;SDS011;62150;43.582;1.456;2024-02-21T11:12:49;5.70;;;2.47;;
17496;SDS011;62150;43.582;1.456;2024-02-21T11:15:18;6.23;;;2.30;;
17496;SDS011;62150;43.582;1.456;2024-02-21T11:17:54;4.23;;;2.07;;
17496;SDS011;62150;43.582;1.456;2024-02-21T11:20:31;6.20;;;2.17;;
17496;SDS011;62150;43.582;1.456;2024-02-21T11:23:01;4.83;;;2.13;;
17496;SDS011;62150;43.582;1.456;2024-02-21T11:25:29;3.57;;;1.90;;
17496;SDS011;62150;43.582;1.456;2024-02-21T11:27:59;5.70;;;2.30;;
17496;SDS011;62150;43.582;1.456;2024-02-21T11:30:27;4.23;;;1.93;;
17496;SDS011;62150;43.582;1.456;2024-02-21T11:33:00;5.57;;;1.80;;
17496;SDS011;62150;43.582;1.456;2024-02-21T11:35:30;4.87;;;1.90;;
17496;SDS011;62150;43.582;1.456;2024-02-21T11:38:08;3.73;;;1.80;;
17496;SDS011;62150;43.582;1.456;2024-02-21T11:40:40;4.13;;;1.90;;
17496;SDS011;62150;43.582;1.456;2024-02-21T11:43:08;4.00;;;1.90;;
17496;SDS011;62150;43.582;1.456;2024-02-21T11:45:35;3.03;;;1.77;;
17496;SDS011;62150;43.582;1.456;2024-02-21T11:48:05;3.07;;;1.67;;
17496;SDS011;62150;43.582;1.456;2024-02-21T11:50:34;4.00;;;2.00;;
17496;SDS011;62150;43.582;1.456;2024-02-21T11:53:02;3.37;;;1.87;;
17496;SDS011;62150;43.582;1.456;2024-02-21T11:55:31;2.17;;;1.70;;
17496;SDS011;62150;43.582;1.456;2024-02-21T11:57:59;2.83;;;1.80;;
17496;SDS011;62150;43.582;1.456;2024-02-21T12:00:27;2.90;;;1.70;;
17496;SDS011;62150;43.582;1.456;2024-02-21T12:02:54;4.13;;;1.70;;
17496;SDS011;62150;43.582;1.456;2024-02-21T12:05:26;5.43;;;1.80;;
17496;SDS011;62150;43.582;1.456;2024-02-21T12:07:54;3.73;;;1.93;;
17496;SDS011;62150;43.582;1.456;2024-02-21T12:10:23;3.13;;;1.60;;
17496;SDS011;62150;43.582;1.456;2024-02-21T12:12:53;3.53;;;1.80;;
17496;SDS011;62150;43.582;1.456;2024-02-21T12:15:31;2.70;;;1.70;;
17496;SDS011;62150;43.582;1.456;2024-02-21T12:17:58;3.07;;;1.70;;
17496;SDS011;62150;43.582;1.456;2024-02-21T12:20:26;4.20;;;1.83;;
17496;SDS011;62150;43.582;1.456;2024-02-21T12:22:54;5.17;;;1.80;;
17496;SDS011;62150;43.582;1.456;2024-02-21T12:25:22;4.30;;;1.80;;
17496;SDS011;62150;43.582;1.456;2024-02-21T12:27:51;3.87;;;2.00;;
17496;SDS011;62150;43.582;1.456;2024-02-21T12:30:21;3.03;;;1.87;;
17496;SDS011;62150;43.582;1.456;2024-02-21T12:32:49;4.60;;;1.97;;
17496;SDS011;62150;43.582;1.456;2024-02-21T12:35:16;3.43;;;1.90;;
17496;SDS011;62150;43.582;1.456;2024-02-21T12:37:44;3.77;;;1.90;;
17496;SDS011;62150;43.582;1.456;2024-02-21T12:40:11;6.30;;;2.00;;
17496;SDS011;62150;43.582;1.456;2024-02-21T12:42:39;4.57;;;1.80;;
17496;SDS011;62150;43.582;1.456;2024-02-21T12:45:08;4.20;;;2.20;;
17496;SDS011;62150;43.582;1.456;2024-02-21T12:47:36;3.40;;;1.70;;
17496;SDS011;62150;43.582;1.456;2024-02-21T12:50:05;2.93;;;1.90;;
17496;SDS011;62150;43.582;1.456;2024-02-21T12:52:33;4.40;;;1.90;;
17496;SDS011;62150;43.582;1.456;2024-02-21T12:55:00;4.03;;;1.80;;
17496;SDS011;62150;43.582;1.456;2024-02-21T12:57:28;4.10;;;1.80;;
17496;SDS011;62150;43.582;1.456;2024-02-21T12:59:56;5.13;;;2.10;;
17496;SDS011;62150;43.582;1.456;2024-02-21T13:02:25;5.27;;;1.90;;
17496;SDS011;62150;43.582;1.456;2024-02-21T13:04:52;5.47;;;1.90;;
17496;SDS011;62150;43.582;1.456;2024-02-21T13:07:20;4.87;;;1.80;;
17496;SDS011;62150;43.582;1.456;2024-02-21T13:09:47;3.23;;;1.80;;
17496;SDS011;62150;43.582;1.456;2024-02-21T13:12:15;4.23;;;1.80;;
17496;SDS011;62150;43.582;1.456;2024-02-21T13:14:42;2.90;;;1.80;;
17496;SDS011;62150;43.582;1.456;2024-02-21T13:17:10;3.47;;;1.70;;
17496;SDS011;62150;43.582;1.456;2024-02-21T13:19:39;2.70;;;1.90;;
17496;SDS011;62150;43.582;1.456;2024-02-21T13:22:06;3.90;;;1.97;;
17496;SDS011;62150;43.582;1.456;2024-02-21T13:24:34;5.10;;;1.80;;
17496;SDS011;62150;43.582;1.456;2024-02-21T13:27:02;3.00;;;1.70;;
17496;SDS011;62150;43.582;1.456;2024-02-21T13:29:29;3.63;;;1.80;;
17496;SDS011;62150;43.582;1.456;2024-02-21T13:31:57;3.73;;;1.80;;
17496;SDS011;62150;43.582;1.456;2024-02-21T13:34:24;6.70;;;1.70;;
17496;SDS011;62150;43.582;1.456;2024-02-21T13:36:53;3.07;;;1.60;;
17496;SDS011;62150;43.582;1.456;2024-02-21T13:39:21;5.10;;;1.90;;
17496;SDS011;62150;43.582;1.456;2024-02-21T13:41:48;2.83;;;1.67;;
17496;SDS011;62150;43.582;1.456;2024-02-21T13:44:16;3.03;;;1.77;;
17496;SDS011;62150;43.582;1.456;2024-02-21T13:46:44;2.43;;;1.70;;
17496;SDS011;62150;43.582;1.456;2024-02-21T13:49:11;2.90;;;1.70;;
17496;SDS011;62150;43.582;1.456;2024-02-21T13:51:39;4.87;;;1.73;;
17496;SDS011;62150;43.582;1.456;2024-02-21T13:54:09;5.50;;;2.03;;
17496;SDS011;62150;43.582;1.456;2024-02-21T13:56:39;3.97;;;1.70;;
17496;SDS011;62150;43.582;1.456;2024-02-21T13:59:07;3.83;;;1.80;;
17496;SDS011;62150;43.582;1.456;2024-02-21T14:01:34;4.23;;;1.83;;
17496;SDS011;62150;43.582;1.456;2024-02-21T14:04:02;1.77;;;1.60;;
17496;SDS011;62150;43.582;1.456;2024-02-21T14:06:30;3.53;;;1.83;;
17496;SDS011;62150;43.582;1.456;2024-02-21T14:08:57;4.03;;;1.80;;
17496;SDS011;62150;43.582;1.456;2024-02-21T14:11:28;5.53;;;1.80;;
17496;SDS011;62150;43.582;1.456;2024-02-21T14:13:56;2.30;;;1.60;;
17496;SDS011;62150;43.582;1.456;2024-02-21T14:16:23;3.20;;;1.67;;
17496;SDS011;62150;43.582;1.456;2024-02-21T14:18:51;5.73;;;1.67;;
17496;SDS011;62150;43.582;1.456;2024-02-21T14:21:19;2.73;;;1.60;;
17496;SDS011;62150;43.582;1.456;2024-02-21T14:23:47;3.00;;;1.70;;
17496;SDS011;62150;43.582;1.456;2024-02-21T14:26:14;3.97;;;1.80;;
17496;SDS011;62150;43.582;1.456;2024-02-21T14:28:43;3.60;;;1.80;;
17496;SDS011;62150;43.582;1.456;2024-02-21T14:31:11;3.50;;;1.60;;
17496;SDS011;62150;43.582;1.456;2024-02-21T14:33:38;2.95;;;1.75;;
17496;SDS011;62150;43.582;1.456;2024-02-21T14:36:06;3.30;;;1.90;;
17496;SDS011;62150;43.582;1.456;2024-02-21T14:38:33;3.67;;;1.88;;
17496;SDS011;62150;43.582;1.456;2024-02-21T14:41:01;5.20;;;2.33;;
17496;SDS011;62150;43.582;1.456;2024-02-21T14:43:29;6.83;;;3.23;;
17496;SDS011;62150;43.582;1.456;2024-02-21T14:45:57;7.85;;;3.47;;
17496;SDS011;62150;43.582;1.456;2024-02-21T14:48:25;6.40;;;3.10;;
17496;SDS011;62150;43.582;1.456;2024-02-21T14:50:54;7.23;;;3.30;;
17496;SDS011;62150;43.582;1.456;2024-02-21T14:53:21;4.85;;;2.35;;
17496;SDS011;62150;43.582;1.456;2024-02-21T14:55:49;5.13;;;2.22;;
17496;SDS011;62150;43.582;1.456;2024-02-21T14:58:16;3.53;;;2.07;;
17496;SDS011;62150;43.582;1.456;2024-02-21T15:00:44;4.87;;;1.83;;
17496;SDS011;62150;43.582;1.456;2024-02-21T15:03:15;3.93;;;1.90;;
17496;SDS011;62150;43.582;1.456;2024-02-21T15:05:44;3.33;;;2.05;;
17496;SDS011;62150;43.582;1.456;2024-02-21T15:08:12;5.93;;;2.08;;
17496;SDS011;62150;43.582;1.456;2024-02-21T15:10:42;3.90;;;2.03;;
17496;SDS011;62150;43.582;1.456;2024-02-21T15:13:09;2.85;;;1.90;;
17496;SDS011;62150;43.582;1.456;2024-02-21T15:15:37;3.58;;;2.15;;
17496;SDS011;62150;43.582;1.456;2024-02-21T15:18:04;4.38;;;2.03;;
17496;SDS011;62150;43.582;1.456;2024-02-21T15:20:35;4.93;;;1.90;;
17496;SDS011;62150;43.582;1.456;2024-02-21T15:23:02;4.30;;;2.20;;
17496;SDS011;62150;43.582;1.456;2024-02-21T15:25:30;2.92;;;1.92;;
17496;SDS011;62150;43.582;1.456;2024-02-21T15:27:59;4.03;;;2.10;;
17496;SDS011;62150;43.582;1.456;2024-02-21T15:30:27;4.63;;;2.17;;
17496;SDS011;62150;43.582;1.456;2024-02-21T15:32:56;3.22;;;1.90;;
17496;SDS011;62150;43.582;1.456;2024-02-21T15:35:26;4.65;;;2.28;;
17496;SDS011;62150;43.582;1.456;2024-02-21T15:37:56;7.50;;;2.20;;
17496;SDS011;62150;43.582;1.456;2024-02-21T15:40:24;4.43;;;2.20;;
17496;SDS011;62150;43.582;1.456;2024-02-21T15:42:51;5.78;;;2.15;;
17496;SDS011;62150;43.582;1.456;2024-02-21T15:45:19;7.93;;;2.40;;
17496;SDS011;62150;43.582;1.456;2024-02-21T15:47:47;6.25;;;2.30;;
17496;SDS011;62150;43.582;1.456;2024-02-21T15:50:15;4.13;;;2.00;;
17496;SDS011;62150;43.582;1.456;2024-02-21T15:52:44;5.63;;;2.20;;
17496;SDS011;62150;43.582;1.456;2024-02-21T15:55:13;6.45;;;2.40;;
17496;SDS011;62150;43.582;1.456;2024-02-21T15:57:42;6.40;;;2.40;;
17496;SDS011;62150;43.582;1.456;2024-02-21T16:00:10;5.13;;;2.40;;
17496;SDS011;62150;43.582;1.456;2024-02-21T16:02:38;5.35;;;2.30;;
17496;SDS011;62150;43.582;1.456;2024-02-21T16:05:07;4.78;;;2.15;;
17496;SDS011;62150;43.582;1.456;2024-02-21T16:07:35;7.20;;;2.33;;
17496;SDS011;62150;43.582;1.456;2024-02-21T16:10:04;6.05;;;2.47;;
17496;SDS011;62150;43.582;1.456;2024-02-21T16:12:33;5.00;;;2.17;;
17496;SDS011;62150;43.582;1.456;2024-02-21T16:15:03;5.60;;;2.20;;
17496;SDS011;62150;43.582;1.456;2024-02-21T16:17:31;4.00;;;2.10;;
17496;SDS011;62150;43.582;1.456;2024-02-21T16:19:59;6.22;;;2.55;;
17496;SDS011;62150;43.582;1.456;2024-02-21T16:22:26;5.97;;;2.50;;
17496;SDS011;62150;43.582;1.456;2024-02-21T16:24:54;7.15;;;2.72;;
17496;SDS011;62150;43.582;1.456;2024-02-21T16:27:21;6.40;;;2.67;;
17496;SDS011;62150;43.582;1.456;2024-02-21T16:29:51;6.95;;;2.78;;
17496;SDS011;62150;43.582;1.456;2024-02-21T16:32:18;5.63;;;2.60;;
17496;SDS011;62150;43.582;1.456;2024-02-21T16:34:46;6.00;;;2.70;;
17496;SDS011;62150;43.582;1.456;2024-02-21T16:37:13;8.45;;;3.30;;
17496;SDS011;62150;43.582;1.456;2024-02-21T16:39:41;6.30;;;2.50;;
17496;SDS011;62150;43.582;1.456;2024-02-21T16:42:08;5.67;;;2.97;;
17496;SDS011;62150;43.582;1.456;2024-02-21T16:44:36;5.05;;;2.50;;
17496;SDS011;62150;43.582;1.456;2024-02-21T16:47:05;5.05;;;2.60;;
17496;SDS011;62150;43.582;1.456;2024-02-21T16:49:33;6.00;;;2.38;;
17496;SDS011;62150;43.582;1.456;2024-02-21T16:52:01;5.03;;;2.50;;
17496;SDS011;62150;43.582;1.456;2024-02-21T16:54:29;6.25;;;2.60;;
17496;SDS011;62150;43.582;1.456;2024-02-21T16:56:56;6.45;;;2.90;;
17496;SDS011;62150;43.582;1.456;2024-02-21T16:59:24;6.03;;;2.70;;
17496;SDS011;62150;43.582;1.456;2024-02-21T17:01:52;7.00;;;2.70;;
17496;SDS011;62150;43.582;1.456;2024-02-21T17:04:21;5.47;;;2.70;;
17496;SDS011;62150;43.582;1.456;2024-02-21T17:06:48;6.35;;;2.70;;
17496;SDS011;62150;43.582;1.456;2024-02-21T17:09:16;5.63;;;2.80;;
17496;SDS011;62150;43.582;1.456;2024-02-21T17:11:43;6.07;;;2.55;;
17496;SDS011;62150;43.582;1.456;2024-02-21T17:14:11;7.80;;;2.93;;
17496;SDS011;62150;43.582;1.456;2024-02-21T17:16:39;7.93;;;3.17;;
17496;SDS011;62150;43.582;1.456;2024-02-21T17:19:06;6.90;;;2.90;;
17496;SDS011;62150;43.582;1.456;2024-02-21T17:21:37;7.20;;;3.10;;
17496;SDS011;62150;43.582;1.456;2024-02-21T17:24:05;8.38;;;2.92;;
17496;SDS011;62150;43.582;1.456;2024-02-21T17:26:32;8.10;;;2.90;;
17496;SDS011;62150;43.582;1.456;2024-02-21T17:29:00;7.17;;;2.93;;
17496;SDS011;62150;43.582;1.456;2024-02-21T17:31:27;7.50;;;3.10;;
17496;SDS011;62150;43.582;1.456;2024-02-21T17:33:55;6.85;;;3.05;;
17496;SDS011;62150;43.582;1.456;2024-02-21T17:36:22;7.93;;;3.13;;
17496;SDS011;62150;43.582;1.456;2024-02-21T17:38:51;7.80;;;3.10;;
17496;SDS011;62150;43.582;1.456;2024-02-21T17:41:19;7.13;;;3.20;;
17496;SDS011;62150;43.582;1.456;2024-02-21T17:43:48;6.70;;;3.05;;
17496;SDS011;62150;43.582;1.456;2024-02-21T17:46:16;6.80;;;3.03;;
17496;SDS011;62150;43.582;1.456;2024-02-21T17:48:45;6.25;;;2.90;;
17496;SDS011;62150;43.582;1.456;2024-02-21T17:51:12;8.07;;;3.20;;
17496;SDS011;62150;43.582;1.456;2024-02-21T17:53:40;8.80;;;3.63;;
17496;SDS011;62150;43.582;1.456;2024-02-21T17:56:09;8.30;;;3.63;;
17496;SDS011;62150;43.582;1.456;2024-02-21T17:58:37;9.57;;;4.33;;
17496;SDS011;62150;43.582;1.456;2024-02-21T18:01:04;9.53;;;4.47;;
17496;SDS011;62150;43.582;1.456;2024-02-21T18:03:32;8.80;;;4.10;;
17496;SDS011;62150;43.582;1.456;2024-02-21T18:05:59;9.43;;;4.37;;
17496;SDS011;62150;43.582;1.456;2024-02-21T18:08:27;11.05;;;5.75;;
17496;SDS011;62150;43.582;1.456;2024-02-21T18:10:55;13.80;;;6.70;;
17496;SDS011;62150;43.582;1.456;2024-02-21T18:13:24;14.60;;;6.95;;
17496;SDS011;62150;43.582;1.456;2024-02-21T18:15:52;11.97;;;5.80;;
17496;SDS011;62150;43.582;1.456;2024-02-21T18:18:19;15.52;;;7.53;;
17496;SDS011;62150;43.582;1.456;2024-02-21T18:20:47;13.90;;;7.17;;
17496;SDS011;62150;43.582;1.456;2024-02-21T18:23:15;15.35;;;7.05;;
17496;SDS011;62150;43.582;1.456;2024-02-21T18:25:43;14.03;;;7.00;;
17496;SDS011;62150;43.582;1.456;2024-02-21T18:28:11;13.23;;;6.77;;
17496;SDS011;62150;43.582;1.456;2024-02-21T18:30:40;15.47;;;7.03;;
17496;SDS011;62150;43.582;1.456;2024-02-21T18:33:08;11.73;;;6.00;;
17496;SDS011;62150;43.582;1.456;2024-02-21T18:35:35;12.45;;;6.50;;
17496;SDS011;62150;43.582;1.456;2024-02-21T18:38:04;11.30;;;6.33;;
17496;SDS011;62150;43.582;1.456;2024-02-21T18:40:32;12.30;;;6.10;;
17496;SDS011;62150;43.582;1.456;2024-02-21T18:43:00;11.90;;;5.72;;
17496;SDS011;62150;43.582;1.456;2024-02-21T18:45:27;11.27;;;6.30;;
17496;SDS011;62150;43.582;1.456;2024-02-21T18:47:56;11.57;;;6.28;;
17496;SDS011;62150;43.582;1.456;2024-02-21T18:50:25;10.77;;;5.85;;
17496;SDS011;62150;43.582;1.456;2024-02-21T18:52:52;12.00;;;6.60;;
17496;SDS011;62150;43.582;1.456;2024-02-21T18:55:20;11.95;;;5.60;;
17496;SDS011;62150;43.582;1.456;2024-02-21T18:57:49;12.00;;;6.07;;
17496;SDS011;62150;43.582;1.456;2024-02-21T19:00:16;13.20;;;6.95;;
17496;SDS011;62150;43.582;1.456;2024-02-21T19:02:47;11.80;;;6.63;;
17496;SDS011;62150;43.582;1.456;2024-02-21T19:05:17;13.33;;;7.00;;
17496;SDS011;62150;43.582;1.456;2024-02-21T19:07:46;11.97;;;6.70;;
17496;SDS011;62150;43.582;1.456;2024-02-21T19:10:14;11.33;;;6.03;;
17496;SDS011;62150;43.582;1.456;2024-02-21T19:12:41;10.83;;;5.20;;
17496;SDS011;62150;43.582;1.456;2024-02-21T19:15:09;12.17;;;5.77;;
17496;SDS011;62150;43.582;1.456;2024-02-21T19:17:37;11.63;;;4.97;;
17496;SDS011;62150;43.582;1.456;2024-02-21T19:20:06;9.47;;;4.57;;
17496;SDS011;62150;43.582;1.456;2024-02-21T19:22:37;11.83;;;5.67;;
17496;SDS011;62150;43.582;1.456;2024-02-21T19:25:07;11.60;;;6.03;;
17496;SDS011;62150;43.582;1.456;2024-02-21T19:27:42;15.13;;;8.37;;